sensor_id;sensor_type;location;lat;lon;timestamp;P1;durP1;ratioP1;P2;durP2;ratioP2
48268;SDS011;34088;52.232;5.196;2022-08-14T00:00:00;9.05;;;6.45;;
48268;SDS011;34088;52.232;5.196;2022-08-14T00:02:38;9.30;;;6.53;;
48268;SDS011;34088;52.232;5.196;2022-08-14T00:05:04;7.20;;;6.00;;
48268;SDS011;34088;52.232;5.196;2022-08-14T00:07:35;6.93;;;5.82;;
48268;SDS011;34088;52.232;5.196;2022-08-14T00:10:05;8.93;;;6.45;;
48268;SDS011;34088;52.232;5.196;2022-08-14T00:12:34;7.95;;;6.32;;
48268;SDS011;34088;52.232;5.196;2022-08-14T00:15:05;8.00;;;6.60;;
48268;SDS011;34088;52.232;5.196;2022-08-14T00:17:34;7.35;;;6.57;;
48268;SDS011;34088;52.232;5.196;2022-08-14T00:20:00;9.27;;;6.22;;
48268;SDS011;34088;52.232;5.196;2022-08-14T00:22:27;8.50;;;6.35;;
48268;SDS011;34088;52.232;5.196;2022-08-14T00:24:53;7.68;;;6.63;;
48268;SDS011;34088;52.232;5.196;2022-08-14T00:27:19;7.57;;;6.75;;
48268;SDS011;34088;52.232;5.196;2022-08-14T00:29:45;7.40;;;6.70;;
48268;SDS011;34088;52.232;5.196;2022-08-14T00:32:11;8.55;;;6.90;;
48268;SDS011;34088;52.232;5.196;2022-08-14T00:34:38;11.52;;;7.05;;
48268;SDS011;34088;52.232;5.196;2022-08-14T00:37:04;7.43;;;6.72;;
48268;SDS011;34088;52.232;5.196;2022-08-14T00:39:30;9.18;;;6.80;;
48268;SDS011;34088;52.232;5.196;2022-08-14T00:41:56;7.50;;;6.68;;
48268;SDS011;34088;52.232;5.196;2022-08-14T00:44:22;10.32;;;6.90;;
48268;SDS011;34088;52.232;5.196;2022-08-14T00:46:48;10.10;;;7.43;;
48268;SDS011;34088;52.232;5.196;2022-08-14T00:49:14;7.78;;;7.00;;
48268;SDS011;34088;52.232;5.196;2022-08-14T00:51:42;9.18;;;7.15;;
48268;SDS011;34088;52.232;5.196;2022-08-14T00:54:09;11.07;;;7.22;;
48268;SDS011;34088;52.232;5.196;2022-08-14T00:56:36;9.45;;;7.28;;
48268;SDS011;34088;52.232;5.196;2022-08-14T00:59:03;7.72;;;6.95;;
48268;SDS011;34088;52.232;5.196;2022-08-14T01:01:29;8.80;;;7.50;;
48268;SDS011;34088;52.232;5.196;2022-08-14T01:03:57;10.13;;;7.57;;
48268;SDS011;34088;52.232;5.196;2022-08-14T01:06:23;8.32;;;7.07;;
48268;SDS011;34088;52.232;5.196;2022-08-14T01:08:50;8.40;;;7.50;;
48268;SDS011;34088;52.232;5.196;2022-08-14T01:11:19;7.90;;;6.97;;
48268;SDS011;34088;52.232;5.196;2022-08-14T01:13:46;10.63;;;7.97;;
48268;SDS011;34088;52.232;5.196;2022-08-14T01:16:14;8.65;;;7.45;;
48268;SDS011;34088;52.232;5.196;2022-08-14T01:18:41;10.90;;;7.40;;
48268;SDS011;34088;52.232;5.196;2022-08-14T01:23:56;9.68;;;7.43;;
48268;SDS011;34088;52.232;5.196;2022-08-14T01:26:23;8.48;;;7.47;;
48268;SDS011;34088;52.232;5.196;2022-08-14T01:28:51;9.80;;;7.03;;
48268;SDS011;34088;52.232;5.196;2022-08-14T01:31:20;10.13;;;7.70;;
48268;SDS011;34088;52.232;5.196;2022-08-14T01:33:49;9.52;;;7.68;;
48268;SDS011;34088;52.232;5.196;2022-08-14T01:36:17;12.77;;;7.82;;
48268;SDS011;34088;52.232;5.196;2022-08-14T01:38:45;11.82;;;7.70;;
48268;SDS011;34088;52.232;5.196;2022-08-14T01:41:13;10.18;;;7.93;;
48268;SDS011;34088;52.232;5.196;2022-08-14T01:43:57;8.52;;;7.63;;
48268;SDS011;34088;52.232;5.196;2022-08-14T01:46:26;10.88;;;7.85;;
48268;SDS011;34088;52.232;5.196;2022-08-14T01:48:57;9.13;;;8.07;;
48268;SDS011;34088;52.232;5.196;2022-08-14T01:51:24;9.50;;;7.63;;
48268;SDS011;34088;52.232;5.196;2022-08-14T01:53:53;8.75;;;7.85;;
48268;SDS011;34088;52.232;5.196;2022-08-14T01:56:21;9.73;;;7.68;;
48268;SDS011;34088;52.232;5.196;2022-08-14T01:58:59;11.27;;;7.88;;
48268;SDS011;34088;52.232;5.196;2022-08-14T02:01:25;11.27;;;8.68;;
48268;SDS011;34088;52.232;5.196;2022-08-14T02:03:52;8.80;;;7.90;;
48268;SDS011;34088;52.232;5.196;2022-08-14T02:06:18;8.77;;;7.88;;
48268;SDS011;34088;52.232;5.196;2022-08-14T02:08:45;9.40;;;8.00;;
48268;SDS011;34088;52.232;5.196;2022-08-14T02:11:11;8.52;;;7.72;;
48268;SDS011;34088;52.232;5.196;2022-08-14T02:13:51;9.75;;;7.88;;
48268;SDS011;34088;52.232;5.196;2022-08-14T02:16:21;9.50;;;7.97;;
48268;SDS011;34088;52.232;5.196;2022-08-14T02:18:49;10.20;;;8.65;;
48268;SDS011;34088;52.232;5.196;2022-08-14T02:21:16;13.32;;;8.40;;
48268;SDS011;34088;52.232;5.196;2022-08-14T02:23:46;10.75;;;8.95;;
48268;SDS011;34088;52.232;5.196;2022-08-14T02:26:18;10.85;;;8.90;;
48268;SDS011;34088;52.232;5.196;2022-08-14T02:28:46;9.57;;;8.68;;
48268;SDS011;34088;52.232;5.196;2022-08-14T02:31:13;10.82;;;8.32;;
48268;SDS011;34088;52.232;5.196;2022-08-14T02:33:40;9.85;;;8.70;;
48268;SDS011;34088;52.232;5.196;2022-08-14T02:36:06;10.73;;;8.48;;
48268;SDS011;34088;52.232;5.196;2022-08-14T02:38:34;9.75;;;8.75;;
48268;SDS011;34088;52.232;5.196;2022-08-14T02:41:00;10.13;;;8.85;;
48268;SDS011;34088;52.232;5.196;2022-08-14T02:43:27;10.32;;;8.75;;
48268;SDS011;34088;52.232;5.196;2022-08-14T02:45:54;10.95;;;9.27;;
48268;SDS011;34088;52.232;5.196;2022-08-14T02:48:20;10.00;;;8.95;;
48268;SDS011;34088;52.232;5.196;2022-08-14T02:50:46;10.55;;;9.35;;
48268;SDS011;34088;52.232;5.196;2022-08-14T02:53:13;10.02;;;9.02;;
48268;SDS011;34088;52.232;5.196;2022-08-14T02:55:39;10.82;;;9.63;;
48268;SDS011;34088;52.232;5.196;2022-08-14T02:58:07;11.52;;;9.70;;
48268;SDS011;34088;52.232;5.196;2022-08-14T03:00:34;10.05;;;9.05;;
48268;SDS011;34088;52.232;5.196;2022-08-14T03:03:00;11.07;;;9.98;;
48268;SDS011;34088;52.232;5.196;2022-08-14T03:05:28;11.00;;;9.80;;
48268;SDS011;34088;52.232;5.196;2022-08-14T03:08:03;11.40;;;9.63;;
48268;SDS011;34088;52.232;5.196;2022-08-14T03:10:33;10.15;;;9.25;;
48268;SDS011;34088;52.232;5.196;2022-08-14T03:13:00;11.65;;;9.48;;
48268;SDS011;34088;52.232;5.196;2022-08-14T03:15:28;11.00;;;9.88;;
48268;SDS011;34088;52.232;5.196;2022-08-14T03:17:55;15.23;;;10.00;;
48268;SDS011;34088;52.232;5.196;2022-08-14T03:20:21;12.93;;;9.93;;
48268;SDS011;34088;52.232;5.196;2022-08-14T03:22:47;11.13;;;9.95;;
48268;SDS011;34088;52.232;5.196;2022-08-14T03:25:13;10.45;;;9.45;;
48268;SDS011;34088;52.232;5.196;2022-08-14T03:27:39;12.10;;;10.90;;
48268;SDS011;34088;52.232;5.196;2022-08-14T03:30:05;11.95;;;9.80;;
48268;SDS011;34088;52.232;5.196;2022-08-14T03:32:32;10.73;;;9.73;;
48268;SDS011;34088;52.232;5.196;2022-08-14T03:34:58;11.23;;;10.13;;
48268;SDS011;34088;52.232;5.196;2022-08-14T03:37:25;11.80;;;10.10;;
48268;SDS011;34088;52.232;5.196;2022-08-14T03:39:51;11.18;;;10.00;;
48268;SDS011;34088;52.232;5.196;2022-08-14T03:42:17;11.45;;;10.32;;
48268;SDS011;34088;52.232;5.196;2022-08-14T03:44:44;11.63;;;10.40;;
48268;SDS011;34088;52.232;5.196;2022-08-14T03:47:10;12.05;;;10.27;;
48268;SDS011;34088;52.232;5.196;2022-08-14T03:49:36;11.05;;;9.70;;
48268;SDS011;34088;52.232;5.196;2022-08-14T03:52:03;11.38;;;10.18;;
48268;SDS011;34088;52.232;5.196;2022-08-14T03:54:30;12.73;;;10.45;;
48268;SDS011;34088;52.232;5.196;2022-08-14T03:56:59;11.52;;;10.20;;
48268;SDS011;34088;52.232;5.196;2022-08-14T03:59:25;12.13;;;10.68;;
48268;SDS011;34088;52.232;5.196;2022-08-14T04:01:52;10.98;;;9.90;;
48268;SDS011;34088;52.232;5.196;2022-08-14T04:04:18;12.43;;;10.52;;
48268;SDS011;34088;52.232;5.196;2022-08-14T04:06:44;12.77;;;11.23;;
48268;SDS011;34088;52.232;5.196;2022-08-14T04:09:10;11.63;;;10.48;;
48268;SDS011;34088;52.232;5.196;2022-08-14T04:11:36;12.23;;;11.02;;
48268;SDS011;34088;52.232;5.196;2022-08-14T04:14:03;12.38;;;10.13;;
48268;SDS011;34088;52.232;5.196;2022-08-14T04:16:29;12.25;;;10.93;;
48268;SDS011;34088;52.232;5.196;2022-08-14T04:18:56;12.43;;;10.05;;
48268;SDS011;34088;52.232;5.196;2022-08-14T04:21:24;13.85;;;10.55;;
48268;SDS011;34088;52.232;5.196;2022-08-14T04:23:54;13.73;;;10.68;;
48268;SDS011;34088;52.232;5.196;2022-08-14T04:26:22;13.02;;;10.60;;
48268;SDS011;34088;52.232;5.196;2022-08-14T04:28:49;11.57;;;10.48;;
48268;SDS011;34088;52.232;5.196;2022-08-14T04:31:16;11.75;;;10.55;;
48268;SDS011;34088;52.232;5.196;2022-08-14T04:33:43;12.57;;;11.32;;
48268;SDS011;34088;52.232;5.196;2022-08-14T04:36:09;12.52;;;11.32;;
48268;SDS011;34088;52.232;5.196;2022-08-14T04:38:35;13.52;;;10.80;;
48268;SDS011;34088;52.232;5.196;2022-08-14T04:41:20;13.10;;;11.10;;
48268;SDS011;34088;52.232;5.196;2022-08-14T04:44:05;12.80;;;11.25;;
48268;SDS011;34088;52.232;5.196;2022-08-14T04:46:32;12.07;;;10.98;;
48268;SDS011;34088;52.232;5.196;2022-08-14T04:48:59;14.25;;;10.70;;
48268;SDS011;34088;52.232;5.196;2022-08-14T04:51:29;12.52;;;11.23;;
48268;SDS011;34088;52.232;5.196;2022-08-14T04:53:55;12.43;;;11.13;;
48268;SDS011;34088;52.232;5.196;2022-08-14T04:56:22;12.63;;;11.00;;
48268;SDS011;34088;52.232;5.196;2022-08-14T04:58:50;12.82;;;11.52;;
48268;SDS011;34088;52.232;5.196;2022-08-14T05:01:22;15.85;;;11.63;;
48268;SDS011;34088;52.232;5.196;2022-08-14T05:03:48;12.18;;;10.95;;
48268;SDS011;34088;52.232;5.196;2022-08-14T05:06:15;12.88;;;11.50;;
48268;SDS011;34088;52.232;5.196;2022-08-14T05:08:42;15.07;;;11.93;;
48268;SDS011;34088;52.232;5.196;2022-08-14T05:11:08;12.70;;;11.50;;
48268;SDS011;34088;52.232;5.196;2022-08-14T05:13:35;14.35;;;11.02;;
48268;SDS011;34088;52.232;5.196;2022-08-14T05:16:01;14.18;;;11.52;;
48268;SDS011;34088;52.232;5.196;2022-08-14T05:18:30;12.82;;;11.45;;
48268;SDS011;34088;52.232;5.196;2022-08-14T05:20:58;13.52;;;12.05;;
48268;SDS011;34088;52.232;5.196;2022-08-14T05:23:26;12.60;;;11.30;;
48268;SDS011;34088;52.232;5.196;2022-08-14T05:25:55;13.88;;;11.43;;
48268;SDS011;34088;52.232;5.196;2022-08-14T05:28:26;15.38;;;11.85;;
48268;SDS011;34088;52.232;5.196;2022-08-14T05:30:55;13.55;;;11.63;;
48268;SDS011;34088;52.232;5.196;2022-08-14T05:33:23;13.35;;;11.20;;
48268;SDS011;34088;52.232;5.196;2022-08-14T05:35:53;13.23;;;11.93;;
48268;SDS011;34088;52.232;5.196;2022-08-14T05:38:25;13.40;;;12.07;;
48268;SDS011;34088;52.232;5.196;2022-08-14T05:40:53;13.10;;;11.70;;
48268;SDS011;34088;52.232;5.196;2022-08-14T05:43:23;13.93;;;12.00;;
48268;SDS011;34088;52.232;5.196;2022-08-14T05:45:49;12.27;;;11.07;;
48268;SDS011;34088;52.232;5.196;2022-08-14T05:48:15;13.93;;;12.18;;
48268;SDS011;34088;52.232;5.196;2022-08-14T05:50:41;16.10;;;11.82;;
48268;SDS011;34088;52.232;5.196;2022-08-14T05:53:08;13.18;;;11.65;;
48268;SDS011;34088;52.232;5.196;2022-08-14T05:55:34;13.02;;;11.55;;
48268;SDS011;34088;52.232;5.196;2022-08-14T05:58:01;15.73;;;12.10;;
48268;SDS011;34088;52.232;5.196;2022-08-14T06:00:34;15.02;;;12.10;;
48268;SDS011;34088;52.232;5.196;2022-08-14T06:03:02;14.73;;;11.25;;
48268;SDS011;34088;52.232;5.196;2022-08-14T06:05:30;13.35;;;11.95;;
48268;SDS011;34088;52.232;5.196;2022-08-14T06:07:57;18.65;;;12.30;;
48268;SDS011;34088;52.232;5.196;2022-08-14T06:10:23;18.17;;;12.85;;
48268;SDS011;34088;52.232;5.196;2022-08-14T06:12:51;14.27;;;12.40;;
48268;SDS011;34088;52.232;5.196;2022-08-14T06:15:17;16.95;;;12.88;;
48268;SDS011;34088;52.232;5.196;2022-08-14T06:17:44;13.50;;;12.10;;
48268;SDS011;34088;52.232;5.196;2022-08-14T06:20:14;13.70;;;12.18;;
48268;SDS011;34088;52.232;5.196;2022-08-14T06:22:41;16.60;;;12.32;;
48268;SDS011;34088;52.232;5.196;2022-08-14T06:25:09;14.23;;;12.70;;
48268;SDS011;34088;52.232;5.196;2022-08-14T06:27:37;16.90;;;13.43;;
48268;SDS011;34088;52.232;5.196;2022-08-14T06:30:08;14.15;;;12.75;;
48268;SDS011;34088;52.232;5.196;2022-08-14T06:32:35;18.90;;;13.30;;
48268;SDS011;34088;52.232;5.196;2022-08-14T06:35:05;14.20;;;12.73;;
48268;SDS011;34088;52.232;5.196;2022-08-14T06:37:42;14.30;;;12.70;;
48268;SDS011;34088;52.232;5.196;2022-08-14T06:40:13;13.65;;;12.35;;
48268;SDS011;34088;52.232;5.196;2022-08-14T06:42:40;15.18;;;13.48;;
48268;SDS011;34088;52.232;5.196;2022-08-14T06:45:07;14.85;;;13.02;;
48268;SDS011;34088;52.232;5.196;2022-08-14T06:47:34;16.88;;;13.00;;
48268;SDS011;34088;52.232;5.196;2022-08-14T07:02:00;14.85;;;13.35;;
48268;SDS011;34088;52.232;5.196;2022-08-14T07:04:45;14.98;;;12.55;;
48268;SDS011;34088;52.232;5.196;2022-08-14T07:07:36;14.60;;;13.02;;
48268;SDS011;34088;52.232;5.196;2022-08-14T07:10:03;14.80;;;13.30;;
48268;SDS011;34088;52.232;5.196;2022-08-14T07:12:29;17.15;;;13.80;;
48268;SDS011;34088;52.232;5.196;2022-08-14T07:14:55;14.60;;;13.02;;
48268;SDS011;34088;52.232;5.196;2022-08-14T07:17:21;16.33;;;12.52;;
48268;SDS011;34088;52.232;5.196;2022-08-14T07:19:48;14.30;;;12.18;;
48268;SDS011;34088;52.232;5.196;2022-08-14T07:22:14;14.27;;;12.95;;
48268;SDS011;34088;52.232;5.196;2022-08-14T07:24:40;15.40;;;11.68;;
48268;SDS011;34088;52.232;5.196;2022-08-14T07:27:06;12.80;;;11.50;;
48268;SDS011;34088;52.232;5.196;2022-08-14T07:29:32;15.35;;;11.27;;
48268;SDS011;34088;52.232;5.196;2022-08-14T07:31:58;12.98;;;10.88;;
48268;SDS011;34088;52.232;5.196;2022-08-14T07:34:24;12.75;;;11.13;;
48268;SDS011;34088;52.232;5.196;2022-08-14T07:36:50;15.20;;;11.07;;
48268;SDS011;34088;52.232;5.196;2022-08-14T07:39:16;11.55;;;10.40;;
48268;SDS011;34088;52.232;5.196;2022-08-14T07:41:43;12.80;;;10.77;;
48268;SDS011;34088;52.232;5.196;2022-08-14T07:44:09;11.98;;;10.20;;
48268;SDS011;34088;52.232;5.196;2022-08-14T07:46:35;12.13;;;10.65;;
48268;SDS011;34088;52.232;5.196;2022-08-14T07:49:02;13.77;;;10.13;;
48268;SDS011;34088;52.232;5.196;2022-08-14T07:51:28;12.85;;;10.43;;
48268;SDS011;34088;52.232;5.196;2022-08-14T07:53:55;12.70;;;10.82;;
48268;SDS011;34088;52.232;5.196;2022-08-14T07:56:22;12.35;;;9.90;;
48268;SDS011;34088;52.232;5.196;2022-08-14T07:58:48;12.23;;;10.35;;
48268;SDS011;34088;52.232;5.196;2022-08-14T08:01:15;13.30;;;10.05;;
48268;SDS011;34088;52.232;5.196;2022-08-14T08:03:43;11.23;;;9.95;;
48268;SDS011;34088;52.232;5.196;2022-08-14T08:06:11;12.70;;;10.00;;
48268;SDS011;34088;52.232;5.196;2022-08-14T08:08:38;14.98;;;10.57;;
48268;SDS011;34088;52.232;5.196;2022-08-14T08:11:07;11.07;;;9.82;;
48268;SDS011;34088;52.232;5.196;2022-08-14T08:13:33;13.63;;;10.65;;
48268;SDS011;34088;52.232;5.196;2022-08-14T08:16:00;13.18;;;9.57;;
48268;SDS011;34088;52.232;5.196;2022-08-14T08:18:29;10.93;;;9.75;;
48268;SDS011;34088;52.232;5.196;2022-08-14T08:20:55;13.10;;;10.00;;
48268;SDS011;34088;52.232;5.196;2022-08-14T08:23:22;10.82;;;9.80;;
48268;SDS011;34088;52.232;5.196;2022-08-14T08:25:50;12.82;;;9.48;;
48268;SDS011;34088;52.232;5.196;2022-08-14T08:28:17;12.38;;;9.75;;
48268;SDS011;34088;52.232;5.196;2022-08-14T08:30:54;10.43;;;9.27;;
48268;SDS011;34088;52.232;5.196;2022-08-14T08:33:22;15.57;;;10.25;;
48268;SDS011;34088;52.232;5.196;2022-08-14T08:35:51;11.10;;;10.00;;
48268;SDS011;34088;52.232;5.196;2022-08-14T08:38:19;11.27;;;9.55;;
48268;SDS011;34088;52.232;5.196;2022-08-14T08:40:47;12.05;;;9.85;;
48268;SDS011;34088;52.232;5.196;2022-08-14T08:43:31;11.18;;;9.50;;
48268;SDS011;34088;52.232;5.196;2022-08-14T08:45:59;11.45;;;9.60;;
48268;SDS011;34088;52.232;5.196;2022-08-14T08:48:46;9.68;;;8.88;;
48268;SDS011;34088;52.232;5.196;2022-08-14T08:51:19;14.85;;;10.07;;
48268;SDS011;34088;52.232;5.196;2022-08-14T08:53:54;10.98;;;8.93;;
48268;SDS011;34088;52.232;5.196;2022-08-14T08:56:37;11.40;;;9.02;;
48268;SDS011;34088;52.232;5.196;2022-08-14T09:01:51;9.55;;;8.65;;
48268;SDS011;34088;52.232;5.196;2022-08-14T09:04:22;9.55;;;8.48;;
48268;SDS011;34088;52.232;5.196;2022-08-14T09:06:52;11.02;;;8.43;;
48268;SDS011;34088;52.232;5.196;2022-08-14T09:09:19;9.88;;;8.90;;
48268;SDS011;34088;52.232;5.196;2022-08-14T09:11:47;11.55;;;8.40;;
48268;SDS011;34088;52.232;5.196;2022-08-14T09:14:13;9.30;;;8.40;;
48268;SDS011;34088;52.232;5.196;2022-08-14T09:16:39;9.50;;;8.30;;
48268;SDS011;34088;52.232;5.196;2022-08-14T09:19:06;11.57;;;7.60;;
48268;SDS011;34088;52.232;5.196;2022-08-14T09:21:33;7.60;;;6.90;;
48268;SDS011;34088;52.232;5.196;2022-08-14T09:23:59;8.40;;;7.55;;
48268;SDS011;34088;52.232;5.196;2022-08-14T09:26:26;9.25;;;8.07;;
48268;SDS011;34088;52.232;5.196;2022-08-14T09:28:52;9.68;;;7.95;;
48268;SDS011;34088;52.232;5.196;2022-08-14T09:31:18;8.90;;;6.88;;
48268;SDS011;34088;52.232;5.196;2022-08-14T09:39:42;7.25;;;6.53;;
48268;SDS011;34088;52.232;5.196;2022-08-14T09:45:41;7.53;;;6.82;;
48268;SDS011;34088;52.232;5.196;2022-08-14T09:48:14;11.20;;;7.50;;
48268;SDS011;34088;52.232;5.196;2022-08-14T09:50:45;8.55;;;7.05;;
48268;SDS011;34088;52.232;5.196;2022-08-14T09:53:14;9.40;;;7.18;;
48268;SDS011;34088;52.232;5.196;2022-08-14T09:56:00;7.60;;;6.80;;
48268;SDS011;34088;52.232;5.196;2022-08-14T09:58:44;12.73;;;7.00;;
48268;SDS011;34088;52.232;5.196;2022-08-14T10:01:14;8.68;;;7.25;;
48268;SDS011;34088;52.232;5.196;2022-08-14T10:03:51;7.93;;;6.82;;
48268;SDS011;34088;52.232;5.196;2022-08-14T10:06:20;8.95;;;6.88;;
48268;SDS011;34088;52.232;5.196;2022-08-14T10:08:57;8.20;;;7.05;;
48268;SDS011;34088;52.232;5.196;2022-08-14T10:11:30;6.68;;;6.07;;
48268;SDS011;34088;52.232;5.196;2022-08-14T10:16:41;7.22;;;6.47;;
48268;SDS011;34088;52.232;5.196;2022-08-14T10:19:09;9.25;;;6.00;;
48268;SDS011;34088;52.232;5.196;2022-08-14T10:21:38;7.43;;;5.60;;
48268;SDS011;34088;52.232;5.196;2022-08-14T10:24:10;7.72;;;6.57;;
48268;SDS011;34088;52.232;5.196;2022-08-14T10:26:54;7.47;;;6.78;;
48268;SDS011;34088;52.232;5.196;2022-08-14T10:29:29;8.48;;;6.55;;
48268;SDS011;34088;52.232;5.196;2022-08-14T10:31:57;9.18;;;7.07;;
48268;SDS011;34088;52.232;5.196;2022-08-14T10:34:29;10.52;;;6.57;;
48268;SDS011;34088;52.232;5.196;2022-08-14T10:37:04;9.27;;;6.72;;
48268;SDS011;34088;52.232;5.196;2022-08-14T10:39:35;7.88;;;7.05;;
48268;SDS011;34088;52.232;5.196;2022-08-14T10:42:06;8.23;;;6.57;;
48268;SDS011;34088;52.232;5.196;2022-08-14T10:44:40;7.60;;;6.35;;
48268;SDS011;34088;52.232;5.196;2022-08-14T10:47:11;6.97;;;6.28;;
48268;SDS011;34088;52.232;5.196;2022-08-14T10:49:59;6.95;;;6.28;;
48268;SDS011;34088;52.232;5.196;2022-08-14T10:52:26;7.07;;;6.38;;
48268;SDS011;34088;52.232;5.196;2022-08-14T10:55:12;9.25;;;6.38;;
48268;SDS011;34088;52.232;5.196;2022-08-14T10:57:49;7.53;;;6.63;;
48268;SDS011;34088;52.232;5.196;2022-08-14T11:00:19;8.48;;;6.68;;
48268;SDS011;34088;52.232;5.196;2022-08-14T11:03:01;6.43;;;5.53;;
48268;SDS011;34088;52.232;5.196;2022-08-14T11:05:37;7.00;;;5.97;;
48268;SDS011;34088;52.232;5.196;2022-08-14T11:08:05;6.82;;;6.05;;
48268;SDS011;34088;52.232;5.196;2022-08-14T11:13:16;7.63;;;5.68;;
48268;SDS011;34088;52.232;5.196;2022-08-14T11:15:45;5.22;;;4.72;;
48268;SDS011;34088;52.232;5.196;2022-08-14T11:18:13;6.97;;;5.20;;
48268;SDS011;34088;52.232;5.196;2022-08-14T11:20:40;5.70;;;4.85;;
48268;SDS011;34088;52.232;5.196;2022-08-14T11:23:12;7.15;;;4.65;;
48268;SDS011;34088;52.232;5.196;2022-08-14T11:25:42;8.25;;;5.53;;
48268;SDS011;34088;52.232;5.196;2022-08-14T11:28:13;6.75;;;5.05;;
48268;SDS011;34088;52.232;5.196;2022-08-14T11:30:40;7.93;;;5.43;;
48268;SDS011;34088;52.232;5.196;2022-08-14T11:33:08;5.40;;;4.75;;
48268;SDS011;34088;52.232;5.196;2022-08-14T11:35:35;5.78;;;4.75;;
48268;SDS011;34088;52.232;5.196;2022-08-14T11:38:03;7.03;;;3.90;;
48268;SDS011;34088;52.232;5.196;2022-08-14T11:40:31;4.70;;;4.20;;
48268;SDS011;34088;52.232;5.196;2022-08-14T11:42:59;6.28;;;4.50;;
48268;SDS011;34088;52.232;5.196;2022-08-14T11:45:28;4.70;;;4.28;;
48268;SDS011;34088;52.232;5.196;2022-08-14T11:47:57;10.15;;;4.82;;
48268;SDS011;34088;52.232;5.196;2022-08-14T11:50:31;5.93;;;4.82;;
48268;SDS011;34088;52.232;5.196;2022-08-14T11:52:58;7.90;;;4.55;;
48268;SDS011;34088;52.232;5.196;2022-08-14T11:55:31;7.10;;;5.05;;
48268;SDS011;34088;52.232;5.196;2022-08-14T11:58:00;5.60;;;5.00;;
48268;SDS011;34088;52.232;5.196;2022-08-14T12:00:32;4.90;;;4.10;;
48268;SDS011;34088;52.232;5.196;2022-08-14T12:02:59;5.35;;;4.07;;
48268;SDS011;34088;52.232;5.196;2022-08-14T12:07:58;5.85;;;4.07;;
48268;SDS011;34088;52.232;5.196;2022-08-14T12:10:24;4.68;;;4.20;;
48268;SDS011;34088;52.232;5.196;2022-08-14T12:12:51;5.38;;;4.13;;
48268;SDS011;34088;52.232;5.196;2022-08-14T12:15:33;5.03;;;4.10;;
48268;SDS011;34088;52.232;5.196;2022-08-14T12:18:02;6.20;;;4.18;;
48268;SDS011;34088;52.232;5.196;2022-08-14T12:20:29;4.35;;;3.95;;
48268;SDS011;34088;52.232;5.196;2022-08-14T12:22:56;6.47;;;4.55;;
48268;SDS011;34088;52.232;5.196;2022-08-14T12:25:24;7.85;;;4.60;;
48268;SDS011;34088;52.232;5.196;2022-08-14T12:27:52;5.38;;;4.13;;
48268;SDS011;34088;52.232;5.196;2022-08-14T12:32:54;4.90;;;4.40;;
48268;SDS011;34088;52.232;5.196;2022-08-14T12:35:21;5.38;;;4.60;;
48268;SDS011;34088;52.232;5.196;2022-08-14T12:37:49;5.30;;;4.07;;
48268;SDS011;34088;52.232;5.196;2022-08-14T12:40:16;5.75;;;5.15;;
48268;SDS011;34088;52.232;5.196;2022-08-14T12:42:44;7.32;;;4.80;;
48268;SDS011;34088;52.232;5.196;2022-08-14T12:45:11;4.50;;;4.10;;
48268;SDS011;34088;52.232;5.196;2022-08-14T12:47:40;4.85;;;4.35;;
48268;SDS011;34088;52.232;5.196;2022-08-14T12:50:08;5.47;;;4.10;;
48268;SDS011;34088;52.232;5.196;2022-08-14T12:52:38;6.80;;;4.80;;
48268;SDS011;34088;52.232;5.196;2022-08-14T12:55:06;5.05;;;4.35;;
48268;SDS011;34088;52.232;5.196;2022-08-14T12:57:44;5.80;;;4.40;;
48268;SDS011;34088;52.232;5.196;2022-08-14T13:00:15;4.75;;;4.35;;
48268;SDS011;34088;52.232;5.196;2022-08-14T13:02:44;5.07;;;4.50;;
48268;SDS011;34088;52.232;5.196;2022-08-14T13:05:14;6.15;;;4.85;;
48268;SDS011;34088;52.232;5.196;2022-08-14T13:07:41;5.78;;;4.90;;
48268;SDS011;34088;52.232;5.196;2022-08-14T13:10:10;4.82;;;4.43;;
48268;SDS011;34088;52.232;5.196;2022-08-14T13:12:40;6.80;;;4.57;;
48268;SDS011;34088;52.232;5.196;2022-08-14T13:15:10;5.47;;;4.97;;
48268;SDS011;34088;52.232;5.196;2022-08-14T13:17:45;7.22;;;5.03;;
48268;SDS011;34088;52.232;5.196;2022-08-14T13:20:12;5.70;;;4.40;;
48268;SDS011;34088;52.232;5.196;2022-08-14T13:22:40;7.20;;;4.90;;
48268;SDS011;34088;52.232;5.196;2022-08-14T13:25:09;6.45;;;4.43;;
48268;SDS011;34088;52.232;5.196;2022-08-14T13:27:43;6.88;;;4.70;;
48268;SDS011;34088;52.232;5.196;2022-08-14T13:30:11;5.25;;;4.65;;
48268;SDS011;34088;52.232;5.196;2022-08-14T13:32:38;4.60;;;4.15;;
48268;SDS011;34088;52.232;5.196;2022-08-14T13:35:08;6.10;;;4.55;;
48268;SDS011;34088;52.232;5.196;2022-08-14T13:37:35;5.05;;;4.57;;
48268;SDS011;34088;52.232;5.196;2022-08-14T13:40:02;5.63;;;4.97;;
48268;SDS011;34088;52.232;5.196;2022-08-14T13:42:29;7.13;;;5.07;;
48268;SDS011;34088;52.232;5.196;2022-08-14T13:44:56;7.32;;;4.53;;
48268;SDS011;34088;52.232;5.196;2022-08-14T13:47:24;6.78;;;4.75;;
48268;SDS011;34088;52.232;5.196;2022-08-14T13:49:56;5.00;;;4.47;;
48268;SDS011;34088;52.232;5.196;2022-08-14T13:52:28;5.13;;;4.72;;
48268;SDS011;34088;52.232;5.196;2022-08-14T13:54:55;5.28;;;4.60;;
48268;SDS011;34088;52.232;5.196;2022-08-14T13:57:25;5.22;;;4.72;;
48268;SDS011;34088;52.232;5.196;2022-08-14T13:59:51;7.22;;;5.00;;
48268;SDS011;34088;52.232;5.196;2022-08-14T14:02:18;7.07;;;4.60;;
48268;SDS011;34088;52.232;5.196;2022-08-14T14:04:46;6.82;;;4.75;;
48268;SDS011;34088;52.232;5.196;2022-08-14T14:07:18;5.75;;;5.15;;
48268;SDS011;34088;52.232;5.196;2022-08-14T14:09:46;5.22;;;4.70;;
48268;SDS011;34088;52.232;5.196;2022-08-14T14:12:12;5.72;;;4.80;;
48268;SDS011;34088;52.232;5.196;2022-08-14T14:14:39;6.95;;;4.85;;
48268;SDS011;34088;52.232;5.196;2022-08-14T14:17:07;8.05;;;5.10;;
48268;SDS011;34088;52.232;5.196;2022-08-14T14:19:42;5.43;;;4.97;;
48268;SDS011;34088;52.232;5.196;2022-08-14T14:22:14;6.75;;;4.85;;
48268;SDS011;34088;52.232;5.196;2022-08-14T14:24:40;5.82;;;4.50;;
48268;SDS011;34088;52.232;5.196;2022-08-14T14:27:07;8.13;;;5.00;;
48268;SDS011;34088;52.232;5.196;2022-08-14T14:29:34;5.22;;;4.72;;
48268;SDS011;34088;52.232;5.196;2022-08-14T14:32:01;6.70;;;4.65;;
48268;SDS011;34088;52.232;5.196;2022-08-14T14:34:28;12.35;;;5.80;;
48268;SDS011;34088;52.232;5.196;2022-08-14T14:36:57;6.35;;;5.45;;
48268;SDS011;34088;52.232;5.196;2022-08-14T14:39:27;6.63;;;5.10;;
48268;SDS011;34088;52.232;5.196;2022-08-14T14:41:55;6.88;;;5.07;;
48268;SDS011;34088;52.232;5.196;2022-08-14T14:44:25;6.45;;;5.38;;
48268;SDS011;34088;52.232;5.196;2022-08-14T14:46:56;7.53;;;4.78;;
48268;SDS011;34088;52.232;5.196;2022-08-14T14:49:23;6.10;;;5.50;;
48268;SDS011;34088;52.232;5.196;2022-08-14T14:51:50;5.40;;;4.75;;
48268;SDS011;34088;52.232;5.196;2022-08-14T14:54:17;5.38;;;4.88;;
48268;SDS011;34088;52.232;5.196;2022-08-14T14:56:44;8.77;;;5.20;;
48268;SDS011;34088;52.232;5.196;2022-08-14T14:59:11;6.43;;;4.45;;
48268;SDS011;34088;52.232;5.196;2022-08-14T15:01:38;5.50;;;4.80;;
48268;SDS011;34088;52.232;5.196;2022-08-14T15:04:05;5.20;;;4.63;;
48268;SDS011;34088;52.232;5.196;2022-08-14T15:06:32;6.28;;;4.80;;
48268;SDS011;34088;52.232;5.196;2022-08-14T15:08:58;8.27;;;4.88;;
48268;SDS011;34088;52.232;5.196;2022-08-14T15:11:25;5.43;;;4.93;;
48268;SDS011;34088;52.232;5.196;2022-08-14T15:13:51;8.80;;;5.30;;
48268;SDS011;34088;52.232;5.196;2022-08-14T15:16:18;5.20;;;4.78;;
48268;SDS011;34088;52.232;5.196;2022-08-14T15:18:44;5.72;;;4.72;;
48268;SDS011;34088;52.232;5.196;2022-08-14T15:21:10;6.90;;;6.30;;
48268;SDS011;34088;52.232;5.196;2022-08-14T15:23:37;5.97;;;5.20;;